Miller, Nebraska
Current Conditions -  °F | °C
As of 12:15 PM on Saturday 25 Oct 2014 (Local Time) from KLXN Reporting Station
Clear Clear  
Wind Chill: 69°   Ceiling: Unl
Heat Index: 69°   Visibility: 10mi
Dew Point: 46°   Wind: 7mph
Humidity: 44%   Direction: 80°E
Pressure: 30.12"   Gusts: NA
Location:  40.93°N, 99.39°W
Report Text: KLXN 251715Z AUTO 08006KT 10SM CLR 20/08 A3012 RMK AO2 T02030078
Loading
Personal Weather Stations






























Interactive Weather Map
Tropical Storm Tracking
New forecast layout! Learn more

10-Day Weather Forecast

Advertisements
Track Severe Weather on mobile